sensor_id;sensor_type;location;lat;lon;timestamp;pressure;altitude;pressure_sealevel;temperature;humidity
46782;BME280;32541;46.298;11.506;2023-06-26T00:02:25;89812.63;;;16.39;79.54
46782;BME280;32541;46.298;11.506;2023-06-26T00:04:50;89818.28;;;16.41;79.20
46782;BME280;32541;46.298;11.506;2023-06-26T00:07:19;89821.22;;;16.32;79.70
46782;BME280;32541;46.298;11.506;2023-06-26T00:09:45;89824.34;;;16.38;79.33
46782;BME280;32541;46.298;11.506;2023-06-26T00:12:11;89824.09;;;16.34;79.47
46782;BME280;32541;46.298;11.506;2023-06-26T00:14:36;89820.16;;;16.25;79.78
46782;BME280;32541;46.298;11.506;2023-06-26T00:17:02;89819.97;;;16.21;80.29
46782;BME280;32541;46.298;11.506;2023-06-26T00:19:27;89820.91;;;16.26;79.96
46782;BME280;32541;46.298;11.506;2023-06-26T00:21:52;89817.84;;;16.33;79.68
46782;BME280;32541;46.298;11.506;2023-06-26T00:24:18;89816.59;;;16.36;79.75
46782;BME280;32541;46.298;11.506;2023-06-26T00:26:46;89820.91;;;16.26;80.05
46782;BME280;32541;46.298;11.506;2023-06-26T00:29:12;89815.00;;;16.20;80.38
46782;BME280;32541;46.298;11.506;2023-06-26T00:31:37;89819.72;;;16.17;81.04
46782;BME280;32541;46.298;11.506;2023-06-26T00:34:03;89818.50;;;16.20;80.49
46782;BME280;32541;46.298;11.506;2023-06-26T00:36:28;89811.44;;;16.05;81.16
46782;BME280;32541;46.298;11.506;2023-06-26T00:38:54;89815.16;;;16.10;80.51
46782;BME280;32541;46.298;11.506;2023-06-26T00:41:19;89803.63;;;16.02;80.73
46782;BME280;32541;46.298;11.506;2023-06-26T00:43:45;89809.28;;;16.04;80.77
46782;BME280;32541;46.298;11.506;2023-06-26T00:46:12;89810.00;;;16.04;81.01
46782;BME280;32541;46.298;11.506;2023-06-26T00:48:39;89808.00;;;15.93;80.86
46782;BME280;32541;46.298;11.506;2023-06-26T00:51:06;89812.81;;;15.93;81.05
46782;BME280;32541;46.298;11.506;2023-06-26T00:53:33;89811.59;;;15.96;80.82
46782;BME280;32541;46.298;11.506;2023-06-26T00:55:59;89810.53;;;15.89;81.22
46782;BME280;32541;46.298;11.506;2023-06-26T00:58:25;89813.09;;;15.85;81.29
46782;BME280;32541;46.298;11.506;2023-06-26T01:00:51;89812.75;;;15.79;81.43
46782;BME280;32541;46.298;11.506;2023-06-26T01:03:17;89812.56;;;15.89;80.97
46782;BME280;32541;46.298;11.506;2023-06-26T01:05:43;89813.13;;;15.74;81.91
46782;BME280;32541;46.298;11.506;2023-06-26T01:08:11;89815.03;;;15.71;81.86
46782;BME280;32541;46.298;11.506;2023-06-26T01:10:37;89812.41;;;15.62;83.31
46782;BME280;32541;46.298;11.506;2023-06-26T01:13:03;89812.06;;;15.55;83.20
46782;BME280;32541;46.298;11.506;2023-06-26T01:15:29;89813.38;;;15.54;83.43
46782;BME280;32541;46.298;11.506;2023-06-26T01:17:55;89812.66;;;15.54;83.03
46782;BME280;32541;46.298;11.506;2023-06-26T01:20:25;89808.22;;;15.49;83.29
46782;BME280;32541;46.298;11.506;2023-06-26T01:28:13;89800.84;;;15.42;83.49
46782;BME280;32541;46.298;11.506;2023-06-26T01:30:42;89801.22;;;15.48;83.35
46782;BME280;32541;46.298;11.506;2023-06-26T01:33:08;89800.63;;;15.38;83.72
46782;BME280;32541;46.298;11.506;2023-06-26T01:35:34;89798.94;;;15.21;84.67
46782;BME280;32541;46.298;11.506;2023-06-26T01:38:31;89800.38;;;15.22;84.50
46782;BME280;32541;46.298;11.506;2023-06-26T01:40:57;89799.31;;;15.16;84.80
46782;BME280;32541;46.298;11.506;2023-06-26T01:46:23;89798.81;;;15.19;84.82
46782;BME280;32541;46.298;11.506;2023-06-26T01:48:57;89797.16;;;15.14;84.68
46782;BME280;32541;46.298;11.506;2023-06-26T01:51:28;89804.97;;;15.06;85.30
46782;BME280;32541;46.298;11.506;2023-06-26T01:53:56;89803.53;;;15.05;85.21
46782;BME280;32541;46.298;11.506;2023-06-26T01:56:23;89804.22;;;15.06;85.17
46782;BME280;32541;46.298;11.506;2023-06-26T01:58:49;89806.41;;;15.07;85.00
46782;BME280;32541;46.298;11.506;2023-06-26T02:01:18;89806.41;;;15.07;85.25
46782;BME280;32541;46.298;11.506;2023-06-26T02:03:43;89799.41;;;15.06;85.36
46782;BME280;32541;46.298;11.506;2023-06-26T02:06:09;89802.06;;;15.16;84.50
46782;BME280;32541;46.298;11.506;2023-06-26T02:08:35;89801.81;;;15.00;85.34
46782;BME280;32541;46.298;11.506;2023-06-26T02:11:01;89801.25;;;15.01;84.82
46782;BME280;32541;46.298;11.506;2023-06-26T02:13:26;89804.22;;;14.94;85.19
46782;BME280;32541;46.298;11.506;2023-06-26T02:15:51;89810.75;;;14.98;86.66
46782;BME280;32541;46.298;11.506;2023-06-26T02:18:17;89803.53;;;14.93;86.50
46782;BME280;32541;46.298;11.506;2023-06-26T02:20:43;89813.53;;;14.87;86.21
46782;BME280;32541;46.298;11.506;2023-06-26T02:23:09;89806.53;;;14.74;86.30
46782;BME280;32541;46.298;11.506;2023-06-26T02:25:34;89806.63;;;14.65;86.57
46782;BME280;32541;46.298;11.506;2023-06-26T02:28:00;89808.81;;;14.66;85.99
46782;BME280;32541;46.298;11.506;2023-06-26T02:30:25;89809.38;;;14.65;86.86
46782;BME280;32541;46.298;11.506;2023-06-26T02:32:50;89805.31;;;14.66;86.45
46782;BME280;32541;46.298;11.506;2023-06-26T02:35:16;89809.28;;;14.74;86.38
46782;BME280;32541;46.298;11.506;2023-06-26T02:37:41;89812.06;;;14.74;86.44
46782;BME280;32541;46.298;11.506;2023-06-26T02:40:07;89816.38;;;14.66;86.58
46782;BME280;32541;46.298;11.506;2023-06-26T02:42:34;89811.69;;;14.68;86.40
46782;BME280;32541;46.298;11.506;2023-06-26T02:45:00;89813.81;;;14.58;87.01
46782;BME280;32541;46.298;11.506;2023-06-26T02:47:25;89819.22;;;14.44;86.91
46782;BME280;32541;46.298;11.506;2023-06-26T02:49:50;89814.06;;;14.51;86.52
46782;BME280;32541;46.298;11.506;2023-06-26T02:52:16;89819.59;;;14.51;87.01
46782;BME280;32541;46.298;11.506;2023-06-26T02:54:41;89825.84;;;14.51;87.35
46782;BME280;32541;46.298;11.506;2023-06-26T02:57:06;89820.78;;;14.48;87.33
46782;BME280;32541;46.298;11.506;2023-06-26T02:59:32;89814.53;;;14.47;87.11
46782;BME280;32541;46.298;11.506;2023-06-26T03:01:58;89822.25;;;14.49;87.20
46782;BME280;32541;46.298;11.506;2023-06-26T03:04:23;89822.25;;;14.49;87.04
46782;BME280;32541;46.298;11.506;2023-06-26T03:06:48;89817.91;;;14.45;87.02
46782;BME280;32541;46.298;11.506;2023-06-26T03:09:14;89819.47;;;14.49;86.87
46782;BME280;32541;46.298;11.506;2023-06-26T03:11:39;89817.16;;;14.33;87.61
46782;BME280;32541;46.298;11.506;2023-06-26T03:14:05;89822.28;;;14.27;88.54
46782;BME280;32541;46.298;11.506;2023-06-26T03:16:30;89826.47;;;14.28;88.52
46782;BME280;32541;46.298;11.506;2023-06-26T03:18:55;89824.00;;;14.32;88.26
46782;BME280;32541;46.298;11.506;2023-06-26T03:21:21;89820.75;;;14.36;87.77
46782;BME280;32541;46.298;11.506;2023-06-26T03:23:46;89822.91;;;14.37;87.73
46782;BME280;32541;46.298;11.506;2023-06-26T03:26:12;89824.63;;;14.42;87.08
46782;BME280;32541;46.298;11.506;2023-06-26T03:28:39;89815.97;;;14.36;87.27
46782;BME280;32541;46.298;11.506;2023-06-26T03:31:05;89822.50;;;14.31;87.69
46782;BME280;32541;46.298;11.506;2023-06-26T03:33:30;89821.22;;;14.32;87.37
46782;BME280;32541;46.298;11.506;2023-06-26T03:35:55;89821.50;;;14.36;87.11
46782;BME280;32541;46.298;11.506;2023-06-26T03:38:22;89827.66;;;14.25;87.66
46782;BME280;32541;46.298;11.506;2023-06-26T03:40:47;89827.66;;;14.25;88.13
46782;BME280;32541;46.298;11.506;2023-06-26T03:43:12;89833.19;;;14.25;88.13
46782;BME280;32541;46.298;11.506;2023-06-26T03:45:38;89835.84;;;14.23;88.35
46782;BME280;32541;46.298;11.506;2023-06-26T03:48:03;89835.50;;;14.29;87.76
46782;BME280;32541;46.298;11.506;2023-06-26T03:50:29;89836.56;;;14.24;87.93
46782;BME280;32541;46.298;11.506;2023-06-26T03:52:54;89847.88;;;14.16;89.02
46782;BME280;32541;46.298;11.506;2023-06-26T03:55:20;89846.66;;;14.19;88.90
46782;BME280;32541;46.298;11.506;2023-06-26T03:57:47;89842.09;;;14.24;88.69
46782;BME280;32541;46.298;11.506;2023-06-26T04:00:13;89848.72;;;14.19;88.62
46782;BME280;32541;46.298;11.506;2023-06-26T04:02:39;89840.75;;;14.13;88.85
46782;BME280;32541;46.298;11.506;2023-06-26T04:05:04;89832.19;;;14.09;89.25
46782;BME280;32541;46.298;11.506;2023-06-26T04:07:30;89837.13;;;14.11;89.68
46782;BME280;32541;46.298;11.506;2023-06-26T04:09:56;89837.84;;;14.11;89.73
46782;BME280;32541;46.298;11.506;2023-06-26T04:12:22;89835.22;;;14.13;89.72
46782;BME280;32541;46.298;11.506;2023-06-26T04:14:47;89828.25;;;14.12;89.96
46782;BME280;32541;46.298;11.506;2023-06-26T04:17:13;89836.53;;;14.12;89.97
46782;BME280;32541;46.298;11.506;2023-06-26T04:19:38;89835.34;;;14.15;89.82
46782;BME280;32541;46.298;11.506;2023-06-26T04:22:03;89834.34;;;14.11;89.63
46782;BME280;32541;46.298;11.506;2023-06-26T04:24:29;89841.25;;;14.21;89.26
46782;BME280;32541;46.298;11.506;2023-06-26T04:26:54;89836.19;;;14.18;89.43
46782;BME280;32541;46.298;11.506;2023-06-26T04:29:22;89835.47;;;14.17;89.19
46782;BME280;32541;46.298;11.506;2023-06-26T04:31:51;89838.00;;;14.13;89.95
46782;BME280;32541;46.298;11.506;2023-06-26T04:34:16;89843.97;;;14.10;90.33
46782;BME280;32541;46.298;11.506;2023-06-26T04:36:41;89843.25;;;14.09;91.34
46782;BME280;32541;46.298;11.506;2023-06-26T04:39:13;89842.13;;;14.03;91.77
46782;BME280;32541;46.298;11.506;2023-06-26T04:41:40;89846.03;;;14.09;91.14
46782;BME280;32541;46.298;11.506;2023-06-26T04:44:05;89853.06;;;14.01;91.55
46782;BME280;32541;46.298;11.506;2023-06-26T04:46:31;89846.69;;;13.98;91.32
46782;BME280;32541;46.298;11.506;2023-06-26T04:48:56;89849.19;;;13.94;91.14
46782;BME280;32541;46.298;11.506;2023-06-26T04:51:24;89844.44;;;14.06;90.82
46782;BME280;32541;46.298;11.506;2023-06-26T04:53:49;89845.91;;;14.07;91.32
46782;BME280;32541;46.298;11.506;2023-06-26T04:56:15;89839.19;;;14.10;91.39
46782;BME280;32541;46.298;11.506;2023-06-26T04:58:40;89840.38;;;14.07;91.61
46782;BME280;32541;46.298;11.506;2023-06-26T05:01:05;89829.31;;;14.07;91.78
46782;BME280;32541;46.298;11.506;2023-06-26T05:03:32;89836.81;;;14.16;91.55
46782;BME280;32541;46.298;11.506;2023-06-26T05:05:57;89835.47;;;14.17;91.36
46782;BME280;32541;46.298;11.506;2023-06-26T05:08:24;89840.16;;;14.15;92.05
46782;BME280;32541;46.298;11.506;2023-06-26T05:10:52;89840.50;;;14.09;92.41
46782;BME280;32541;46.298;11.506;2023-06-26T05:13:18;89842.13;;;14.03;93.03
46782;BME280;32541;46.298;11.506;2023-06-26T05:15:45;89838.66;;;14.02;93.00
46782;BME280;32541;46.298;11.506;2023-06-26T05:18:11;89834.56;;;14.03;93.18
46782;BME280;32541;46.298;11.506;2023-06-26T05:20:37;89835.81;;;14.12;93.38
46782;BME280;32541;46.298;11.506;2023-06-26T05:23:03;89834.63;;;14.15;92.70
46782;BME280;32541;46.298;11.506;2023-06-26T05:25:30;89833.44;;;14.18;92.55
46782;BME280;32541;46.298;11.506;2023-06-26T05:27:56;89825.84;;;14.18;92.69
46782;BME280;32541;46.298;11.506;2023-06-26T05:30:23;89833.09;;;14.23;92.44
46782;BME280;32541;46.298;11.506;2023-06-26T05:32:51;89835.84;;;14.23;92.64
46782;BME280;32541;46.298;11.506;2023-06-26T05:35:16;89824.91;;;14.25;92.71
46782;BME280;32541;46.298;11.506;2023-06-26T05:37:42;89822.97;;;14.16;92.57
46782;BME280;32541;46.298;11.506;2023-06-26T05:40:08;89821.88;;;14.42;92.96
46782;BME280;32541;46.298;11.506;2023-06-26T05:42:34;89820.41;;;14.41;92.91
46782;BME280;32541;46.298;11.506;2023-06-26T05:44:59;89819.84;;;14.55;92.07
46782;BME280;32541;46.298;11.506;2023-06-26T05:47:25;89815.88;;;14.58;91.65
46782;BME280;32541;46.298;11.506;2023-06-26T05:49:50;89813.59;;;14.66;91.49
46782;BME280;32541;46.298;11.506;2023-06-26T05:52:16;89818.19;;;14.73;91.08
46782;BME280;32541;46.298;11.506;2023-06-26T05:54:42;89807.47;;;14.79;90.53
46782;BME280;32541;46.298;11.506;2023-06-26T05:57:07;89810.13;;;14.88;90.40
46782;BME280;32541;46.298;11.506;2023-06-26T05:59:36;89809.28;;;14.97;90.17
46782;BME280;32541;46.298;11.506;2023-06-26T06:02:02;89809.41;;;14.99;89.85
46782;BME280;32541;46.298;11.506;2023-06-26T06:04:27;89812.91;;;15.00;90.32
46782;BME280;32541;46.298;11.506;2023-06-26T06:06:52;89806.31;;;14.93;90.70
46782;BME280;32541;46.298;11.506;2023-06-26T06:09:18;89809.66;;;15.03;90.50
46782;BME280;32541;46.298;11.506;2023-06-26T06:11:43;89805.94;;;15.11;90.39
46782;BME280;32541;46.298;11.506;2023-06-26T06:14:09;89805.09;;;15.20;90.03
46782;BME280;32541;46.298;11.506;2023-06-26T06:16:34;89796.53;;;15.27;88.68
46782;BME280;32541;46.298;11.506;2023-06-26T06:18:59;89798.81;;;15.19;89.14
46782;BME280;32541;46.298;11.506;2023-06-26T06:21:25;89792.31;;;15.38;88.61
46782;BME280;32541;46.298;11.506;2023-06-26T06:23:50;89789.66;;;15.51;89.13
46782;BME280;32541;46.298;11.506;2023-06-26T06:26:15;89799.50;;;15.66;88.31
46782;BME280;32541;46.298;11.506;2023-06-26T06:28:41;89798.34;;;15.83;88.39
46782;BME280;32541;46.298;11.506;2023-06-26T06:31:06;89794.06;;;16.05;87.29
46782;BME280;32541;46.298;11.506;2023-06-26T06:33:31;89794.31;;;16.09;87.42
46782;BME280;32541;46.298;11.506;2023-06-26T06:35:58;89790.88;;;16.22;86.26
46782;BME280;32541;46.298;11.506;2023-06-26T06:38:23;89786.53;;;16.44;86.27
46782;BME280;32541;46.298;11.506;2023-06-26T06:40:48;89786.03;;;16.73;85.39
46782;BME280;32541;46.298;11.506;2023-06-26T06:43:14;89785.75;;;16.94;84.71
46782;BME280;32541;46.298;11.506;2023-06-26T06:45:39;89780.25;;;17.21;82.84
46782;BME280;32541;46.298;11.506;2023-06-26T06:48:05;89774.91;;;17.39;81.80
46782;BME280;32541;46.298;11.506;2023-06-26T06:50:31;89783.84;;;17.51;80.22
46782;BME280;32541;46.298;11.506;2023-06-26T06:52:56;89787.47;;;17.67;78.82
46782;BME280;32541;46.298;11.506;2023-06-26T06:55:22;89781.34;;;17.85;77.87
46782;BME280;32541;46.298;11.506;2023-06-26T06:57:47;89787.13;;;18.02;76.39
46782;BME280;32541;46.298;11.506;2023-06-26T07:00:13;89778.09;;;18.17;76.22
46782;BME280;32541;46.298;11.506;2023-06-26T07:02:41;89783.72;;;18.33;75.21
46782;BME280;32541;46.298;11.506;2023-06-26T07:05:07;89784.53;;;18.65;74.74
46782;BME280;32541;46.298;11.506;2023-06-26T07:07:34;89779.69;;;18.65;74.29
46782;BME280;32541;46.298;11.506;2023-06-26T07:10:01;89768.75;;;18.69;72.38
46782;BME280;32541;46.298;11.506;2023-06-26T07:12:27;89766.41;;;18.95;71.54
46782;BME280;32541;46.298;11.506;2023-06-26T07:14:52;89769.13;;;19.09;71.52
46782;BME280;32541;46.298;11.506;2023-06-26T07:17:19;89765.53;;;19.22;70.05
46782;BME280;32541;46.298;11.506;2023-06-26T07:19:44;89759.94;;;19.37;70.41
46782;BME280;32541;46.298;11.506;2023-06-26T07:22:10;89764.28;;;19.56;67.78
46782;BME280;32541;46.298;11.506;2023-06-26T07:24:36;89761.38;;;19.54;68.29
46782;BME280;32541;46.298;11.506;2023-06-26T07:27:01;89754.50;;;19.73;69.13
46782;BME280;32541;46.298;11.506;2023-06-26T07:29:27;89758.63;;;19.87;67.97
46782;BME280;32541;46.298;11.506;2023-06-26T07:31:52;89750.75;;;20.00;67.16
46782;BME280;32541;46.298;11.506;2023-06-26T07:34:17;89754.09;;;20.14;65.36
46782;BME280;32541;46.298;11.506;2023-06-26T07:36:43;89749.72;;;20.09;63.23
46782;BME280;32541;46.298;11.506;2023-06-26T07:39:09;89750.78;;;20.17;62.58
46782;BME280;32541;46.298;11.506;2023-06-26T07:41:34;89749.06;;;20.43;63.68
46782;BME280;32541;46.298;11.506;2023-06-26T07:44:00;89757.44;;;20.61;63.82
46782;BME280;32541;46.298;11.506;2023-06-26T07:46:26;89746.00;;;20.90;63.81
46782;BME280;32541;46.298;11.506;2023-06-26T07:48:52;89744.63;;;21.09;64.04
46782;BME280;32541;46.298;11.506;2023-06-26T07:51:18;89747.22;;;21.23;62.74
46782;BME280;32541;46.298;11.506;2023-06-26T07:53:44;89739.06;;;21.29;59.92
46782;BME280;32541;46.298;11.506;2023-06-26T07:56:10;89745.28;;;20.90;62.91
46782;BME280;32541;46.298;11.506;2023-06-26T07:58:36;89746.56;;;21.24;62.77
46782;BME280;32541;46.298;11.506;2023-06-26T08:01:01;89749.69;;;21.52;61.87
46782;BME280;32541;46.298;11.506;2023-06-26T08:03:27;89744.38;;;21.60;61.17
46782;BME280;32541;46.298;11.506;2023-06-26T08:05:52;89741.59;;;21.40;61.60
46782;BME280;32541;46.298;11.506;2023-06-26T08:08:17;89736.72;;;21.41;61.02
46782;BME280;32541;46.298;11.506;2023-06-26T08:10:44;89741.41;;;21.56;60.53
46782;BME280;32541;46.298;11.506;2023-06-26T08:13:09;89740.72;;;21.75;60.60
46782;BME280;32541;46.298;11.506;2023-06-26T08:15:35;89738.72;;;22.19;57.37
46782;BME280;32541;46.298;11.506;2023-06-26T08:18:00;89743.59;;;21.97;58.83
46782;BME280;32541;46.298;11.506;2023-06-26T08:20:25;89734.72;;;22.04;58.13
46782;BME280;32541;46.298;11.506;2023-06-26T08:22:51;89734.88;;;22.30;59.46
46782;BME280;32541;46.298;11.506;2023-06-26T08:25:17;89726.72;;;22.60;57.92
46782;BME280;32541;46.298;11.506;2023-06-26T08:27:43;89725.94;;;22.57;55.61
46782;BME280;32541;46.298;11.506;2023-06-26T08:30:09;89723.38;;;22.42;54.20
46782;BME280;32541;46.298;11.506;2023-06-26T08:32:34;89726.88;;;22.21;54.23
46782;BME280;32541;46.298;11.506;2023-06-26T08:35:00;89725.06;;;22.73;53.18
46782;BME280;32541;46.298;11.506;2023-06-26T08:37:26;89719.88;;;22.87;50.69
46782;BME280;32541;46.298;11.506;2023-06-26T08:39:51;89722.50;;;23.04;53.02
46782;BME280;32541;46.298;11.506;2023-06-26T08:42:16;89708.59;;;23.32;44.63
46782;BME280;32541;46.298;11.506;2023-06-26T08:44:42;89713.44;;;23.53;42.49
46782;BME280;32541;46.298;11.506;2023-06-26T08:47:09;89716.78;;;23.24;48.37
46782;BME280;32541;46.298;11.506;2023-06-26T08:49:53;89716.19;;;23.51;49.05
46782;BME280;32541;46.298;11.506;2023-06-26T08:52:30;89723.47;;;23.86;46.92
46782;BME280;32541;46.298;11.506;2023-06-26T08:54:59;89704.97;;;24.30;38.28
46782;BME280;32541;46.298;11.506;2023-06-26T08:57:27;89707.09;;;24.60;39.69
46782;BME280;32541;46.298;11.506;2023-06-26T08:59:53;89707.78;;;24.88;39.53
46782;BME280;32541;46.298;11.506;2023-06-26T09:02:20;89706.19;;;25.11;39.67
46782;BME280;32541;46.298;11.506;2023-06-26T09:04:49;89700.38;;;25.34;36.21
46782;BME280;32541;46.298;11.506;2023-06-26T09:07:15;89697.72;;;25.42;36.19
46782;BME280;32541;46.298;11.506;2023-06-26T09:09:41;89700.94;;;25.61;33.94
46782;BME280;32541;46.298;11.506;2023-06-26T09:12:08;89705.66;;;25.86;37.15
46782;BME280;32541;46.298;11.506;2023-06-26T09:14:34;89694.91;;;26.14;35.42
46782;BME280;32541;46.298;11.506;2023-06-26T09:16:59;89681.84;;;25.93;35.08
46782;BME280;32541;46.298;11.506;2023-06-26T09:19:24;89703.03;;;25.96;35.36
46782;BME280;32541;46.298;11.506;2023-06-26T09:21:50;89703.72;;;26.32;35.82
46782;BME280;32541;46.298;11.506;2023-06-26T09:24:16;89693.88;;;26.33;33.49
46782;BME280;32541;46.298;11.506;2023-06-26T09:26:42;89692.66;;;26.44;34.91
46782;BME280;32541;46.298;11.506;2023-06-26T09:29:09;89685.34;;;26.71;33.82
46782;BME280;32541;46.298;11.506;2023-06-26T09:31:37;89680.78;;;26.52;33.87
46782;BME280;32541;46.298;11.506;2023-06-26T09:34:02;89677.19;;;26.45;33.55
46782;BME280;32541;46.298;11.506;2023-06-26T09:36:29;89682.63;;;26.35;35.26
46782;BME280;32541;46.298;11.506;2023-06-26T09:39:06;89677.09;;;26.83;37.02
46782;BME280;32541;46.298;11.506;2023-06-26T09:41:43;89686.00;;;26.68;34.07
46782;BME280;32541;46.298;11.506;2023-06-26T09:44:11;89675.63;;;26.36;34.63
46782;BME280;32541;46.298;11.506;2023-06-26T09:46:38;89682.13;;;26.47;36.78
46782;BME280;32541;46.298;11.506;2023-06-26T09:49:08;89670.13;;;26.88;34.32
46782;BME280;32541;46.298;11.506;2023-06-26T09:51:38;89662.47;;;26.95;33.94
46782;BME280;32541;46.298;11.506;2023-06-26T09:54:04;89669.56;;;26.98;33.06
46782;BME280;32541;46.298;11.506;2023-06-26T09:56:31;89676.53;;;26.93;33.83
46782;BME280;32541;46.298;11.506;2023-06-26T09:58:59;89676.78;;;27.09;34.16
46782;BME280;32541;46.298;11.506;2023-06-26T10:01:25;89666.22;;;27.12;32.27
46782;BME280;32541;46.298;11.506;2023-06-26T10:03:51;89655.78;;;27.22;31.27
46782;BME280;32541;46.298;11.506;2023-06-26T10:06:26;89654.25;;;27.13;35.56
46782;BME280;32541;46.298;11.506;2023-06-26T10:08:53;89646.53;;;27.16;35.60
46782;BME280;32541;46.298;11.506;2023-06-26T10:11:21;89657.31;;;27.31;33.35
46782;BME280;32541;46.298;11.506;2023-06-26T10:13:49;89647.25;;;27.70;32.90
46782;BME280;32541;46.298;11.506;2023-06-26T10:16:23;89643.00;;;27.69;33.53
46782;BME280;32541;46.298;11.506;2023-06-26T10:18:53;89648.59;;;27.65;31.82
46782;BME280;32541;46.298;11.506;2023-06-26T10:21:20;89642.56;;;27.93;35.70
46782;BME280;32541;46.298;11.506;2023-06-26T10:23:48;89646.13;;;27.97;32.87
46782;BME280;32541;46.298;11.506;2023-06-26T10:26:15;89641.16;;;27.96;31.88
46782;BME280;32541;46.298;11.506;2023-06-26T10:28:42;89652.19;;;27.70;30.83
46782;BME280;32541;46.298;11.506;2023-06-26T10:31:09;89643.66;;;27.68;31.19
46782;BME280;32541;46.298;11.506;2023-06-26T10:33:36;89627.03;;;27.96;32.25
46782;BME280;32541;46.298;11.506;2023-06-26T10:36:13;89639.22;;;28.10;30.92
46782;BME280;32541;46.298;11.506;2023-06-26T10:38:52;89638.81;;;28.40;32.79
46782;BME280;32541;46.298;11.506;2023-06-26T10:41:22;89634.53;;;28.35;31.92
46782;BME280;32541;46.298;11.506;2023-06-26T10:44:06;89633.25;;;28.54;31.88
46782;BME280;32541;46.298;11.506;2023-06-26T10:46:55;89628.31;;;28.57;31.48
46782;BME280;32541;46.298;11.506;2023-06-26T10:49:27;89631.28;;;28.67;31.05
46782;BME280;32541;46.298;11.506;2023-06-26T10:51:53;89620.81;;;28.86;31.91
46782;BME280;32541;46.298;11.506;2023-06-26T10:54:19;89616.19;;;28.42;31.91
46782;BME280;32541;46.298;11.506;2023-06-26T10:56:50;89622.16;;;28.81;30.77
46782;BME280;32541;46.298;11.506;2023-06-26T10:59:20;89617.31;;;28.91;32.80
46782;BME280;32541;46.298;11.506;2023-06-26T11:01:53;89610.34;;;29.08;31.82
46782;BME280;32541;46.298;11.506;2023-06-26T11:04:37;89614.03;;;29.31;31.20
46782;BME280;32541;46.298;11.506;2023-06-26T11:07:24;89624.53;;;29.16;31.66
46782;BME280;32541;46.298;11.506;2023-06-26T11:10:01;89623.69;;;28.92;29.69
46782;BME280;32541;46.298;11.506;2023-06-26T11:15:02;89610.72;;;27.90;33.00
46782;BME280;32541;46.298;11.506;2023-06-26T11:17:28;89615.94;;;27.52;31.71
46782;BME280;32541;46.298;11.506;2023-06-26T11:19:54;89606.91;;;27.66;31.95
46782;BME280;32541;46.298;11.506;2023-06-26T11:22:21;89610.28;;;28.14;30.68
46782;BME280;32541;46.298;11.506;2023-06-26T11:24:49;89621.31;;;28.62;34.14
46782;BME280;32541;46.298;11.506;2023-06-26T11:27:17;89625.44;;;28.51;30.46
46782;BME280;32541;46.298;11.506;2023-06-26T11:29:47;89624.16;;;27.92;31.13
46782;BME280;32541;46.298;11.506;2023-06-26T11:32:14;89613.25;;;28.28;32.35
46782;BME280;32541;46.298;11.506;2023-06-26T11:34:39;89609.28;;;28.61;32.79
46782;BME280;32541;46.298;11.506;2023-06-26T11:37:06;89608.84;;;28.97;31.55
46782;BME280;32541;46.298;11.506;2023-06-26T11:39:33;89622.34;;;29.05;28.80
46782;BME280;32541;46.298;11.506;2023-06-26T11:41:59;89622.19;;;27.42;31.97
46782;BME280;32541;46.298;11.506;2023-06-26T11:44:29;89616.44;;;27.38;32.01
46782;BME280;32541;46.298;11.506;2023-06-26T11:46:56;89605.88;;;27.99;33.10
46782;BME280;32541;46.298;11.506;2023-06-26T11:49:22;89609.13;;;28.43;32.66
46782;BME280;32541;46.298;11.506;2023-06-26T11:51:48;89602.44;;;28.89;31.71
46782;BME280;32541;46.298;11.506;2023-06-26T11:54:14;89595.59;;;29.24;33.16
46782;BME280;32541;46.298;11.506;2023-06-26T11:56:40;89589.94;;;29.28;31.59
46782;BME280;32541;46.298;11.506;2023-06-26T11:59:07;89578.34;;;28.88;31.18
46782;BME280;32541;46.298;11.506;2023-06-26T12:01:39;89589.94;;;29.28;32.03
46782;BME280;32541;46.298;11.506;2023-06-26T12:04:06;89588.75;;;29.82;32.10
46782;BME280;32541;46.298;11.506;2023-06-26T12:06:34;89595.88;;;29.89;29.47
46782;BME280;32541;46.298;11.506;2023-06-26T12:09:01;89580.31;;;30.02;28.31
46782;BME280;32541;46.298;11.506;2023-06-26T12:11:29;89592.31;;;29.88;30.97
46782;BME280;32541;46.298;11.506;2023-06-26T12:13:55;89574.69;;;30.20;29.96
46782;BME280;32541;46.298;11.506;2023-06-26T12:16:21;89581.75;;;30.11;27.38
46782;BME280;32541;46.298;11.506;2023-06-26T12:18:47;89586.06;;;30.42;29.84
46782;BME280;32541;46.298;11.506;2023-06-26T12:24:04;89588.81;;;30.06;29.13
46782;BME280;32541;46.298;11.506;2023-06-26T12:26:30;89591.00;;;30.19;29.06
46782;BME280;32541;46.298;11.506;2023-06-26T12:29:09;89593.09;;;30.21;30.14
46782;BME280;32541;46.298;11.506;2023-06-26T12:31:42;89583.22;;;30.34;28.84
46782;BME280;32541;46.298;11.506;2023-06-26T12:34:14;89566.19;;;30.50;29.46
46782;BME280;32541;46.298;11.506;2023-06-26T12:36:50;89582.44;;;30.03;29.05
46782;BME280;32541;46.298;11.506;2023-06-26T12:39:17;89580.25;;;29.82;30.31
46782;BME280;32541;46.298;11.506;2023-06-26T12:41:53;89583.91;;;30.28;29.59
46782;BME280;32541;46.298;11.506;2023-06-26T12:44:23;89585.38;;;30.54;26.14
46782;BME280;32541;46.298;11.506;2023-06-26T12:46:54;89578.97;;;30.45;28.49
46782;BME280;32541;46.298;11.506;2023-06-26T12:49:19;89577.56;;;30.52;28.97
46782;BME280;32541;46.298;11.506;2023-06-26T12:51:45;89563.38;;;30.60;28.47
46782;BME280;32541;46.298;11.506;2023-06-26T12:54:11;89588.38;;;29.05;29.61
46782;BME280;32541;46.298;11.506;2023-06-26T12:56:36;89566.41;;;29.03;30.17
46782;BME280;32541;46.298;11.506;2023-06-26T12:59:02;89561.72;;;29.48;31.05
46782;BME280;32541;46.298;11.506;2023-06-26T13:01:27;89567.47;;;29.76;29.10
46782;BME280;32541;46.298;11.506;2023-06-26T13:03:53;89573.91;;;29.89;29.56